Terminal Aerodrome Forecast
Issued by NWS

Home | Current Version | Previous Version | Text Only | Print | Product List | Glossary On
Versions: 1 2 3 4 5 6 7 8 9 10 11 12 13 14 15 16 17 18 19 20 21
000
FTUS46 KEKA 192344
TAFCEC
TAF
KCEC 192344Z 2000/2024 35011G20KT P6SM SKC
     FM200600 15006KT 6SM BR SCT003
     FM201000 14003KT 4SM BR BKN001
     FM201600 17005KT P6SM SCT005
     FM202200 18010KT P6SM OVC008=

USA.gov is the U.S. government's official web portal to all federal, state and local government web resources and services.